sensor_id;sensor_type;location;lat;lon;timestamp;pressure;altitude;pressure_sealevel;temperature;humidity
57791;BME280;43621;51.798;21.588;2023-05-10T00:03:34;100598.56;;;7.34;45.33
57791;BME280;43621;51.798;21.588;2023-05-10T00:07:35;100593.64;;;7.33;45.78
57791;BME280;43621;51.798;21.588;2023-05-10T00:11:36;100594.20;;;7.30;45.90
57791;BME280;43621;51.798;21.588;2023-05-10T00:15:37;100592.24;;;7.25;45.78
57791;BME280;43621;51.798;21.588;2023-05-10T00:19:38;100588.76;;;7.20;45.48
57791;BME280;43621;51.798;21.588;2023-05-10T00:23:39;100584.79;;;7.18;45.14
57791;BME280;43621;51.798;21.588;2023-05-10T00:27:40;100581.23;;;7.16;45.14
57791;BME280;43621;51.798;21.588;2023-05-10T00:31:41;100578.45;;;7.14;44.90
57791;BME280;43621;51.798;21.588;2023-05-10T00:35:42;100575.30;;;7.12;44.97
57791;BME280;43621;51.798;21.588;2023-05-10T00:39:43;100575.71;;;7.11;44.82
57791;BME280;43621;51.798;21.588;2023-05-10T00:43:44;100571.73;;;7.08;44.94
57791;BME280;43621;51.798;21.588;2023-05-10T00:47:45;100572.40;;;7.06;44.92
57791;BME280;43621;51.798;21.588;2023-05-10T00:51:47;100569.93;;;7.01;45.02
57791;BME280;43621;51.798;21.588;2023-05-10T00:55:48;100569.60;;;6.98;45.21
57791;BME280;43621;51.798;21.588;2023-05-10T00:59:50;100565.42;;;6.93;45.41
57791;BME280;43621;51.798;21.588;2023-05-10T01:03:51;100561.80;;;6.85;45.78
57791;BME280;43621;51.798;21.588;2023-05-10T01:07:53;100563.54;;;6.80;45.67
57791;BME280;43621;51.798;21.588;2023-05-10T01:11:54;100558.75;;;6.77;45.67
57791;BME280;43621;51.798;21.588;2023-05-10T01:15:56;100560.27;;;6.71;45.96
57791;BME280;43621;51.798;21.588;2023-05-10T01:19:57;100561.45;;;6.64;45.66
57791;BME280;43621;51.798;21.588;2023-05-10T01:28:17;100561.41;;;6.55;46.29
57791;BME280;43621;51.798;21.588;2023-05-10T01:32:43;100558.11;;;6.49;46.14
57791;BME280;43621;51.798;21.588;2023-05-10T01:41:36;100560.26;;;6.40;46.36
57791;BME280;43621;51.798;21.588;2023-05-10T01:46:02;100557.80;;;6.38;46.31
57791;BME280;43621;51.798;21.588;2023-05-10T01:50:17;100554.60;;;6.34;46.84
57791;BME280;43621;51.798;21.588;2023-05-10T01:54:20;100555.28;;;6.28;46.74
57791;BME280;43621;51.798;21.588;2023-05-10T01:58:27;100550.44;;;6.23;47.08
57791;BME280;43621;51.798;21.588;2023-05-10T02:02:30;100552.18;;;6.18;47.04
57791;BME280;43621;51.798;21.588;2023-05-10T02:06:36;100549.98;;;6.14;47.54
57791;BME280;43621;51.798;21.588;2023-05-10T02:10:39;100546.75;;;6.10;47.07
57791;BME280;43621;51.798;21.588;2023-05-10T02:14:41;100546.06;;;6.07;47.38
57791;BME280;43621;51.798;21.588;2023-05-10T02:18:43;100543.80;;;6.04;47.52
57791;BME280;43621;51.798;21.588;2023-05-10T02:22:47;100544.88;;;5.99;47.90
57791;BME280;43621;51.798;21.588;2023-05-10T02:26:51;100544.88;;;5.93;48.32
57791;BME280;43621;51.798;21.588;2023-05-10T02:30:54;100539.16;;;5.88;48.16
57791;BME280;43621;51.798;21.588;2023-05-10T02:34:57;100536.12;;;5.84;47.94
57791;BME280;43621;51.798;21.588;2023-05-10T02:39:01;100539.27;;;5.80;47.69
57791;BME280;43621;51.798;21.588;2023-05-10T02:43:04;100538.53;;;5.81;47.61
57791;BME280;43621;51.798;21.588;2023-05-10T02:47:06;100537.35;;;5.81;47.66
57791;BME280;43621;51.798;21.588;2023-05-10T02:51:07;100537.31;;;5.78;47.66
57791;BME280;43621;51.798;21.588;2023-05-10T02:55:09;100538.66;;;5.76;47.97
57791;BME280;43621;51.798;21.588;2023-05-10T02:59:12;100537.98;;;5.73;48.24
57791;BME280;43621;51.798;21.588;2023-05-10T03:03:13;100537.41;;;5.71;48.35
57791;BME280;43621;51.798;21.588;2023-05-10T03:07:14;100540.90;;;5.68;48.94
57791;BME280;43621;51.798;21.588;2023-05-10T03:15:52;100539.32;;;5.60;49.38
57791;BME280;43621;51.798;21.588;2023-05-10T03:20:04;100548.65;;;5.60;49.64
57791;BME280;43621;51.798;21.588;2023-05-10T03:24:09;100549.65;;;5.61;49.76
57791;BME280;43621;51.798;21.588;2023-05-10T03:28:14;100548.34;;;5.62;49.81
57791;BME280;43621;51.798;21.588;2023-05-10T03:32:16;100547.73;;;5.62;50.14
57791;BME280;43621;51.798;21.588;2023-05-10T03:36:18;100549.52;;;5.63;49.94
57791;BME280;43621;51.798;21.588;2023-05-10T03:40:19;100549.45;;;5.70;49.53
57791;BME280;43621;51.798;21.588;2023-05-10T03:44:20;100544.92;;;5.81;49.32
57791;BME280;43621;51.798;21.588;2023-05-10T03:48:22;100546.95;;;5.91;49.54
57791;BME280;43621;51.798;21.588;2023-05-10T03:52:23;100542.46;;;5.96;49.76
57791;BME280;43621;51.798;21.588;2023-05-10T03:56:24;100546.38;;;6.02;49.98
57791;BME280;43621;51.798;21.588;2023-05-10T04:00:25;100542.94;;;6.10;49.71
57791;BME280;43621;51.798;21.588;2023-05-10T04:04:26;100539.80;;;6.19;50.01
57791;BME280;43621;51.798;21.588;2023-05-10T04:08:27;100541.09;;;6.26;50.31
57791;BME280;43621;51.798;21.588;2023-05-10T04:12:28;100538.27;;;6.34;50.10
57791;BME280;43621;51.798;21.588;2023-05-10T04:16:29;100536.40;;;6.44;50.09
57791;BME280;43621;51.798;21.588;2023-05-10T04:20:32;100534.38;;;6.51;50.38
57791;BME280;43621;51.798;21.588;2023-05-10T04:24:34;100535.52;;;6.63;50.20
57791;BME280;43621;51.798;21.588;2023-05-10T04:28:35;100538.55;;;6.75;50.43
57791;BME280;43621;51.798;21.588;2023-05-10T04:32:36;100540.27;;;6.86;50.17
57791;BME280;43621;51.798;21.588;2023-05-10T04:36:37;100541.02;;;6.97;50.02
57791;BME280;43621;51.798;21.588;2023-05-10T04:40:38;100547.42;;;7.10;50.11
57791;BME280;43621;51.798;21.588;2023-05-10T04:44:39;100550.83;;;7.24;50.05
57791;BME280;43621;51.798;21.588;2023-05-10T04:48:40;100550.03;;;7.41;50.03
57791;BME280;43621;51.798;21.588;2023-05-10T04:52:41;100547.21;;;7.56;50.03
57791;BME280;43621;51.798;21.588;2023-05-10T04:56:42;100550.23;;;7.75;49.55
57791;BME280;43621;51.798;21.588;2023-05-10T05:00:43;100551.21;;;7.96;49.19
57791;BME280;43621;51.798;21.588;2023-05-10T05:04:44;100548.10;;;8.17;48.89
57791;BME280;43621;51.798;21.588;2023-05-10T05:08:46;100548.98;;;8.36;48.51
57791;BME280;43621;51.798;21.588;2023-05-10T05:12:47;100546.80;;;8.59;48.41
57791;BME280;43621;51.798;21.588;2023-05-10T05:16:48;100540.04;;;8.82;47.98
57791;BME280;43621;51.798;21.588;2023-05-10T05:20:50;100545.73;;;9.01;47.73
57791;BME280;43621;51.798;21.588;2023-05-10T05:24:51;100547.27;;;9.22;47.59
57791;BME280;43621;51.798;21.588;2023-05-10T05:28:52;100548.17;;;9.48;47.46
57791;BME280;43621;51.798;21.588;2023-05-10T05:32:55;100547.77;;;9.80;47.21
57791;BME280;43621;51.798;21.588;2023-05-10T05:36:56;100540.85;;;10.14;46.69
57791;BME280;43621;51.798;21.588;2023-05-10T05:40:57;100537.48;;;10.47;46.16
57791;BME280;43621;51.798;21.588;2023-05-10T05:44:59;100537.17;;;10.91;45.50
57791;BME280;43621;51.798;21.588;2023-05-10T05:49:02;100539.63;;;11.30;44.54
57791;BME280;43621;51.798;21.588;2023-05-10T05:53:05;100543.06;;;11.71;43.93
57791;BME280;43621;51.798;21.588;2023-05-10T05:57:06;100541.01;;;12.16;43.67
57791;BME280;43621;51.798;21.588;2023-05-10T06:01:08;100538.15;;;12.75;43.07
57791;BME280;43621;51.798;21.588;2023-05-10T06:05:09;100536.08;;;13.33;41.61
57791;BME280;43621;51.798;21.588;2023-05-10T06:09:11;100539.50;;;14.07;39.75
57791;BME280;43621;51.798;21.588;2023-05-10T06:13:12;100544.69;;;15.72;39.24
57791;BME280;43621;51.798;21.588;2023-05-10T06:17:13;100538.59;;;19.76;33.94
57791;BME280;43621;51.798;21.588;2023-05-10T06:21:14;100534.11;;;23.87;30.40
57791;BME280;43621;51.798;21.588;2023-05-10T06:25:16;100542.59;;;27.06;26.44
57791;BME280;43621;51.798;21.588;2023-05-10T06:29:18;100536.17;;;29.34;21.60
57791;BME280;43621;51.798;21.588;2023-05-10T06:33:19;100535.16;;;30.92;20.00
57791;BME280;43621;51.798;21.588;2023-05-10T06:37:20;100537.35;;;32.59;19.59
57791;BME280;43621;51.798;21.588;2023-05-10T06:41:22;100534.77;;;33.90;16.63
57791;BME280;43621;51.798;21.588;2023-05-10T06:45:23;100540.67;;;34.74;15.89
57791;BME280;43621;51.798;21.588;2023-05-10T06:49:24;100543.71;;;35.16;14.58
57791;BME280;43621;51.798;21.588;2023-05-10T06:53:25;100540.96;;;35.55;14.35
57791;BME280;43621;51.798;21.588;2023-05-10T06:57:26;100536.77;;;35.43;13.91
57791;BME280;43621;51.798;21.588;2023-05-10T07:01:27;100535.31;;;35.62;13.58
57791;BME280;43621;51.798;21.588;2023-05-10T07:05:28;100533.60;;;35.22;12.21
57791;BME280;43621;51.798;21.588;2023-05-10T07:09:30;100532.52;;;35.36;12.75
57791;BME280;43621;51.798;21.588;2023-05-10T07:13:31;100535.00;;;36.12;12.22
57791;BME280;43621;51.798;21.588;2023-05-10T07:17:32;100535.36;;;36.73;10.87
57791;BME280;43621;51.798;21.588;2023-05-10T07:21:34;100531.98;;;36.85;10.98
57791;BME280;43621;51.798;21.588;2023-05-10T07:25:36;100538.52;;;37.27;10.11
57791;BME280;43621;51.798;21.588;2023-05-10T07:29:37;100536.48;;;36.70;9.14
57791;BME280;43621;51.798;21.588;2023-05-10T07:33:38;100535.49;;;36.61;9.50
57791;BME280;43621;51.798;21.588;2023-05-10T07:37:39;100537.95;;;36.95;9.10
57791;BME280;43621;51.798;21.588;2023-05-10T07:41:40;100552.58;;;37.38;8.56
57791;BME280;43621;51.798;21.588;2023-05-10T07:45:41;100545.33;;;37.63;8.28
57791;BME280;43621;51.798;21.588;2023-05-10T07:49:42;100538.88;;;38.55;8.44
57791;BME280;43621;51.798;21.588;2023-05-10T07:53:44;100535.10;;;38.86;7.99
57791;BME280;43621;51.798;21.588;2023-05-10T07:57:45;100535.73;;;38.68;8.29
57791;BME280;43621;51.798;21.588;2023-05-10T08:01:46;100531.67;;;38.75;7.99
57791;BME280;43621;51.798;21.588;2023-05-10T08:05:47;100525.98;;;38.48;8.46
57791;BME280;43621;51.798;21.588;2023-05-10T08:09:48;100526.52;;;37.96;8.04
57791;BME280;43621;51.798;21.588;2023-05-10T08:13:50;100534.70;;;37.49;8.02
57791;BME280;43621;51.798;21.588;2023-05-10T08:17:52;100534.50;;;37.00;8.36
57791;BME280;43621;51.798;21.588;2023-05-10T08:21:53;100529.01;;;37.13;8.25
57791;BME280;43621;51.798;21.588;2023-05-10T08:25:56;100528.87;;;37.49;7.99
57791;BME280;43621;51.798;21.588;2023-05-10T08:29:57;100524.30;;;37.65;7.86
57791;BME280;43621;51.798;21.588;2023-05-10T08:33:58;100518.19;;;38.28;7.71
57791;BME280;43621;51.798;21.588;2023-05-10T08:37:59;100520.02;;;38.62;7.32
57791;BME280;43621;51.798;21.588;2023-05-10T08:42:02;100514.83;;;37.98;7.39
57791;BME280;43621;51.798;21.588;2023-05-10T08:46:05;100517.62;;;38.23;7.89
57791;BME280;43621;51.798;21.588;2023-05-10T08:50:09;100515.89;;;39.11;7.26
57791;BME280;43621;51.798;21.588;2023-05-10T08:54:11;100512.86;;;38.85;7.64
57791;BME280;43621;51.798;21.588;2023-05-10T08:58:13;100518.10;;;39.59;7.54
57791;BME280;43621;51.798;21.588;2023-05-10T09:02:15;100530.07;;;40.13;7.09
57791;BME280;43621;51.798;21.588;2023-05-10T09:06:18;100526.20;;;40.62;6.48
57791;BME280;43621;51.798;21.588;2023-05-10T09:10:20;100534.28;;;40.71;6.27
57791;BME280;43621;51.798;21.588;2023-05-10T09:14:24;100524.61;;;39.91;6.36
57791;BME280;43621;51.798;21.588;2023-05-10T09:18:25;100519.33;;;39.40;6.63
57791;BME280;43621;51.798;21.588;2023-05-10T09:22:27;100523.38;;;39.44;6.60
57791;BME280;43621;51.798;21.588;2023-05-10T09:26:28;100521.70;;;39.08;6.49
57791;BME280;43621;51.798;21.588;2023-05-10T09:30:30;100508.65;;;39.63;6.75
57791;BME280;43621;51.798;21.588;2023-05-10T09:34:32;100512.02;;;40.84;6.38
57791;BME280;43621;51.798;21.588;2023-05-10T09:38:51;100509.07;;;40.62;6.30
57791;BME280;43621;51.798;21.588;2023-05-10T09:46:55;100505.21;;;39.73;6.52
57791;BME280;43621;51.798;21.588;2023-05-10T09:50:57;100509.20;;;39.97;6.65
57791;BME280;43621;51.798;21.588;2023-05-10T09:54:59;100508.70;;;39.57;6.75
57791;BME280;43621;51.798;21.588;2023-05-10T09:59:03;100500.77;;;39.81;7.28
57791;BME280;43621;51.798;21.588;2023-05-10T10:03:05;100499.92;;;40.29;7.08
57791;BME280;43621;51.798;21.588;2023-05-10T10:07:06;100497.94;;;40.34;6.88
57791;BME280;43621;51.798;21.588;2023-05-10T10:11:08;100501.60;;;39.74;6.98
57791;BME280;43621;51.798;21.588;2023-05-10T10:15:09;100494.58;;;39.43;7.19
57791;BME280;43621;51.798;21.588;2023-05-10T10:19:11;100494.85;;;39.03;7.19
57791;BME280;43621;51.798;21.588;2023-05-10T10:23:13;100496.58;;;39.05;7.04
57791;BME280;43621;51.798;21.588;2023-05-10T10:27:28;100503.60;;;38.77;7.12
57791;BME280;43621;51.798;21.588;2023-05-10T10:35:52;100477.05;;;37.93;7.34
57791;BME280;43621;51.798;21.588;2023-05-10T10:39:55;100474.37;;;37.63;7.75
57791;BME280;43621;51.798;21.588;2023-05-10T10:48:23;100458.87;;;39.62;7.11
57791;BME280;43621;51.798;21.588;2023-05-10T10:56:31;100464.44;;;36.93;8.04
57791;BME280;43621;51.798;21.588;2023-05-10T11:00:36;100454.44;;;34.18;9.09
57791;BME280;43621;51.798;21.588;2023-05-10T11:04:42;100454.39;;;31.08;10.82
57791;BME280;43621;51.798;21.588;2023-05-10T11:08:47;100460.72;;;28.15;12.48
57791;BME280;43621;51.798;21.588;2023-05-10T11:17:22;100455.09;;;23.42;16.54
57791;BME280;43621;51.798;21.588;2023-05-10T11:21:24;100451.04;;;22.19;17.80
57791;BME280;43621;51.798;21.588;2023-05-10T11:25:27;100438.88;;;21.69;18.34
57791;BME280;43621;51.798;21.588;2023-05-10T11:29:28;100442.73;;;21.41;19.23
57791;BME280;43621;51.798;21.588;2023-05-10T11:33:30;100442.94;;;20.80;20.34
57791;BME280;43621;51.798;21.588;2023-05-10T11:37:31;100450.94;;;20.34;20.50
57791;BME280;43621;51.798;21.588;2023-05-10T11:41:35;100454.14;;;20.01;21.00
57791;BME280;43621;51.798;21.588;2023-05-10T11:45:36;100446.23;;;19.67;21.31
57791;BME280;43621;51.798;21.588;2023-05-10T11:49:38;100439.15;;;19.35;21.50
57791;BME280;43621;51.798;21.588;2023-05-10T11:53:39;100446.44;;;19.20;22.08
57791;BME280;43621;51.798;21.588;2023-05-10T11:57:40;100432.27;;;19.23;22.18
57791;BME280;43621;51.798;21.588;2023-05-10T12:01:43;100427.88;;;19.32;22.28
57791;BME280;43621;51.798;21.588;2023-05-10T12:05:44;100434.32;;;19.41;22.47
57791;BME280;43621;51.798;21.588;2023-05-10T12:14:04;100434.29;;;19.36;22.32
57791;BME280;43621;51.798;21.588;2023-05-10T12:18:09;100429.81;;;19.33;22.68
57791;BME280;43621;51.798;21.588;2023-05-10T12:22:11;100428.98;;;19.25;22.90
57791;BME280;43621;51.798;21.588;2023-05-10T12:26:12;100424.28;;;19.09;22.80
57791;BME280;43621;51.798;21.588;2023-05-10T12:30:22;100433.17;;;18.95;22.60
57791;BME280;43621;51.798;21.588;2023-05-10T12:34:41;100415.84;;;18.94;23.10
57791;BME280;43621;51.798;21.588;2023-05-10T12:38:44;100418.31;;;19.03;23.43
57791;BME280;43621;51.798;21.588;2023-05-10T12:42:48;100423.39;;;19.00;23.36
57791;BME280;43621;51.798;21.588;2023-05-10T12:46:49;100418.71;;;18.83;23.48
57791;BME280;43621;51.798;21.588;2023-05-10T12:50:50;100408.02;;;18.75;23.69
57791;BME280;43621;51.798;21.588;2023-05-10T12:54:52;100410.67;;;18.66;23.49
57791;BME280;43621;51.798;21.588;2023-05-10T12:58:53;100409.04;;;18.59;23.65
57791;BME280;43621;51.798;21.588;2023-05-10T13:02:54;100406.04;;;18.56;23.66
57791;BME280;43621;51.798;21.588;2023-05-10T13:06:55;100399.69;;;18.54;23.82
57791;BME280;43621;51.798;21.588;2023-05-10T13:11:02;100394.77;;;18.52;23.62
57791;BME280;43621;51.798;21.588;2023-05-10T13:15:04;100394.30;;;18.53;23.82
57791;BME280;43621;51.798;21.588;2023-05-10T13:19:06;100389.09;;;18.57;23.82
57791;BME280;43621;51.798;21.588;2023-05-10T13:23:07;100384.70;;;18.58;24.03
57791;BME280;43621;51.798;21.588;2023-05-10T13:27:08;100388.64;;;18.60;24.36
57791;BME280;43621;51.798;21.588;2023-05-10T13:31:09;100378.20;;;18.52;24.39
57791;BME280;43621;51.798;21.588;2023-05-10T13:35:11;100378.75;;;18.44;24.32
57791;BME280;43621;51.798;21.588;2023-05-10T13:39:12;100373.08;;;18.31;24.47
57791;BME280;43621;51.798;21.588;2023-05-10T13:43:13;100370.78;;;18.20;24.34
57791;BME280;43621;51.798;21.588;2023-05-10T13:47:14;100362.60;;;18.15;24.34
57791;BME280;43621;51.798;21.588;2023-05-10T13:51:15;100360.30;;;18.04;24.21
57791;BME280;43621;51.798;21.588;2023-05-10T13:55:16;100364.96;;;18.02;23.93
57791;BME280;43621;51.798;21.588;2023-05-10T13:59:17;100366.70;;;17.97;23.92
57791;BME280;43621;51.798;21.588;2023-05-10T14:03:18;100350.20;;;17.94;24.40
57791;BME280;43621;51.798;21.588;2023-05-10T14:07:19;100350.97;;;17.97;24.44
57791;BME280;43621;51.798;21.588;2023-05-10T14:11:20;100349.04;;;17.98;24.18
57791;BME280;43621;51.798;21.588;2023-05-10T14:15:21;100349.20;;;17.94;23.75
57791;BME280;43621;51.798;21.588;2023-05-10T14:19:23;100346.17;;;17.92;23.73
57791;BME280;43621;51.798;21.588;2023-05-10T14:23:25;100346.92;;;17.89;23.59
57791;BME280;43621;51.798;21.588;2023-05-10T14:27:26;100346.77;;;17.77;23.55
57791;BME280;43621;51.798;21.588;2023-05-10T14:31:27;100343.38;;;17.72;23.72
57791;BME280;43621;51.798;21.588;2023-05-10T14:35:30;100351.86;;;17.74;23.89
57791;BME280;43621;51.798;21.588;2023-05-10T14:39:32;100356.64;;;17.80;23.69
57791;BME280;43621;51.798;21.588;2023-05-10T14:43:33;100358.74;;;17.68;23.21
57791;BME280;43621;51.798;21.588;2023-05-10T14:47:35;100350.94;;;17.58;23.33
57791;BME280;43621;51.798;21.588;2023-05-10T14:51:36;100349.11;;;17.51;23.36
57791;BME280;43621;51.798;21.588;2023-05-10T14:55:37;100350.42;;;17.43;23.16
57791;BME280;43621;51.798;21.588;2023-05-10T14:59:39;100344.43;;;17.32;23.14
57791;BME280;43621;51.798;21.588;2023-05-10T15:03:40;100342.02;;;17.21;23.03
57791;BME280;43621;51.798;21.588;2023-05-10T15:07:41;100347.77;;;17.17;23.30
57791;BME280;43621;51.798;21.588;2023-05-10T15:11:44;100346.70;;;17.11;23.26
57791;BME280;43621;51.798;21.588;2023-05-10T15:15:45;100338.61;;;17.08;23.53
57791;BME280;43621;51.798;21.588;2023-05-10T15:19:46;100343.92;;;17.05;23.62
57791;BME280;43621;51.798;21.588;2023-05-10T15:23:47;100344.41;;;17.01;23.77
57791;BME280;43621;51.798;21.588;2023-05-10T15:27:49;100337.30;;;16.93;23.68
57791;BME280;43621;51.798;21.588;2023-05-10T15:31:50;100326.42;;;16.90;23.93
57791;BME280;43621;51.798;21.588;2023-05-10T15:35:52;100330.26;;;16.89;24.00
57791;BME280;43621;51.798;21.588;2023-05-10T15:39:54;100330.14;;;16.82;23.82
57791;BME280;43621;51.798;21.588;2023-05-10T15:44:03;100328.55;;;16.75;24.04
57791;BME280;43621;51.798;21.588;2023-05-10T15:48:04;100326.20;;;16.71;24.06
57791;BME280;43621;51.798;21.588;2023-05-10T15:52:05;100330.30;;;16.65;24.01
57791;BME280;43621;51.798;21.588;2023-05-10T15:56:06;100326.41;;;16.59;24.24
57791;BME280;43621;51.798;21.588;2023-05-10T16:00:09;100321.66;;;16.54;24.42
57791;BME280;43621;51.798;21.588;2023-05-10T16:04:11;100321.17;;;16.48;24.49
57791;BME280;43621;51.798;21.588;2023-05-10T16:08:12;100322.71;;;16.43;24.49
57791;BME280;43621;51.798;21.588;2023-05-10T16:12:14;100322.60;;;16.38;24.73
57791;BME280;43621;51.798;21.588;2023-05-10T16:16:15;100320.52;;;16.30;24.95
57791;BME280;43621;51.798;21.588;2023-05-10T16:20:16;100326.01;;;16.23;25.26
57791;BME280;43621;51.798;21.588;2023-05-10T16:24:17;100329.06;;;16.16;25.34
57791;BME280;43621;51.798;21.588;2023-05-10T16:28:19;100324.21;;;16.09;25.52
57791;BME280;43621;51.798;21.588;2023-05-10T16:32:22;100322.92;;;16.03;25.54
57791;BME280;43621;51.798;21.588;2023-05-10T16:36:23;100321.98;;;15.99;25.58
57791;BME280;43621;51.798;21.588;2023-05-10T16:40:24;100323.40;;;15.92;25.82
57791;BME280;43621;51.798;21.588;2023-05-10T16:44:25;100317.14;;;15.88;26.04
57791;BME280;43621;51.798;21.588;2023-05-10T16:48:27;100318.19;;;15.84;26.07
57791;BME280;43621;51.798;21.588;2023-05-10T16:52:28;100322.45;;;15.80;26.21
57791;BME280;43621;51.798;21.588;2023-05-10T16:56:29;100322.63;;;15.74;26.37
57791;BME280;43621;51.798;21.588;2023-05-10T17:00:30;100325.27;;;15.69;26.36
57791;BME280;43621;51.798;21.588;2023-05-10T17:04:31;100329.41;;;15.61;26.64
57791;BME280;43621;51.798;21.588;2023-05-10T17:08:32;100333.08;;;15.53;26.68
57791;BME280;43621;51.798;21.588;2023-05-10T17:12:33;100331.48;;;15.46;26.86
57791;BME280;43621;51.798;21.588;2023-05-10T17:16:34;100338.33;;;15.40;27.02
57791;BME280;43621;51.798;21.588;2023-05-10T17:20:36;100336.42;;;15.29;27.17
57791;BME280;43621;51.798;21.588;2023-05-10T17:24:37;100337.46;;;15.20;27.22
57791;BME280;43621;51.798;21.588;2023-05-10T17:28:38;100336.19;;;15.10;27.38
57791;BME280;43621;51.798;21.588;2023-05-10T17:32:39;100341.98;;;14.98;27.41
57791;BME280;43621;51.798;21.588;2023-05-10T17:36:40;100346.60;;;14.86;27.69
57791;BME280;43621;51.798;21.588;2023-05-10T17:40:42;100351.42;;;14.75;28.00
57791;BME280;43621;51.798;21.588;2023-05-10T17:44:43;100352.72;;;14.63;28.20
57791;BME280;43621;51.798;21.588;2023-05-10T17:48:44;100361.12;;;14.51;28.68
57791;BME280;43621;51.798;21.588;2023-05-10T17:52:45;100367.11;;;14.38;28.90
57791;BME280;43621;51.798;21.588;2023-05-10T17:56:46;100367.33;;;14.26;29.18
57791;BME280;43621;51.798;21.588;2023-05-10T18:00:48;100368.77;;;14.12;29.33
57791;BME280;43621;51.798;21.588;2023-05-10T18:04:49;100370.61;;;13.98;29.25
57791;BME280;43621;51.798;21.588;2023-05-10T18:08:50;100369.74;;;13.86;29.59
57791;BME280;43621;51.798;21.588;2023-05-10T18:12:51;100375.45;;;13.73;30.05
57791;BME280;43621;51.798;21.588;2023-05-10T18:16:53;100378.02;;;13.59;30.02
57791;BME280;43621;51.798;21.588;2023-05-10T18:20:55;100382.55;;;13.49;30.06
57791;BME280;43621;51.798;21.588;2023-05-10T18:24:57;100382.05;;;13.38;30.17
57791;BME280;43621;51.798;21.588;2023-05-10T18:28:58;100384.11;;;13.24;30.38
57791;BME280;43621;51.798;21.588;2023-05-10T18:32:59;100392.56;;;13.10;30.76
57791;BME280;43621;51.798;21.588;2023-05-10T18:37:03;100395.20;;;12.97;30.86
57791;BME280;43621;51.798;21.588;2023-05-10T18:41:07;100398.02;;;12.86;31.25
57791;BME280;43621;51.798;21.588;2023-05-10T18:45:08;100399.00;;;12.74;31.36
57791;BME280;43621;51.798;21.588;2023-05-10T18:49:09;100403.68;;;12.61;32.18
57791;BME280;43621;51.798;21.588;2023-05-10T18:53:11;100404.86;;;12.50;32.38
57791;BME280;43621;51.798;21.588;2023-05-10T18:57:15;100415.30;;;12.39;32.24
57791;BME280;43621;51.798;21.588;2023-05-10T19:01:16;100415.37;;;12.29;32.37
57791;BME280;43621;51.798;21.588;2023-05-10T19:05:17;100414.70;;;12.18;32.65
57791;BME280;43621;51.798;21.588;2023-05-10T19:09:19;100417.48;;;12.10;32.74
57791;BME280;43621;51.798;21.588;2023-05-10T19:13:22;100422.36;;;12.03;33.13
57791;BME280;43621;51.798;21.588;2023-05-10T19:17:24;100421.71;;;11.96;33.61
57791;BME280;43621;51.798;21.588;2023-05-10T19:21:26;100420.06;;;11.87;33.53
57791;BME280;43621;51.798;21.588;2023-05-10T19:25:27;100420.96;;;11.79;33.52
57791;BME280;43621;51.798;21.588;2023-05-10T19:29:31;100419.66;;;11.72;33.51
57791;BME280;43621;51.798;21.588;2023-05-10T19:33:32;100423.73;;;11.65;33.88
57791;BME280;43621;51.798;21.588;2023-05-10T19:37:33;100424.52;;;11.58;33.96
57791;BME280;43621;51.798;21.588;2023-05-10T19:41:34;100429.70;;;11.51;33.85
57791;BME280;43621;51.798;21.588;2023-05-10T19:45:35;100435.60;;;11.44;34.16
57791;BME280;43621;51.798;21.588;2023-05-10T19:49:37;100443.75;;;11.37;34.18
57791;BME280;43621;51.798;21.588;2023-05-10T19:53:38;100447.59;;;11.29;34.44
57791;BME280;43621;51.798;21.588;2023-05-10T19:57:43;100451.15;;;11.22;34.79
57791;BME280;43621;51.798;21.588;2023-05-10T20:01:45;100452.63;;;11.15;34.97
57791;BME280;43621;51.798;21.588;2023-05-10T20:05:46;100448.84;;;11.08;34.84
57791;BME280;43621;51.798;21.588;2023-05-10T20:09:48;100453.66;;;11.01;35.00
57791;BME280;43621;51.798;21.588;2023-05-10T20:13:49;100453.02;;;10.94;35.21
57791;BME280;43621;51.798;21.588;2023-05-10T20:17:51;100454.58;;;10.89;35.35
57791;BME280;43621;51.798;21.588;2023-05-10T20:21:52;100452.01;;;10.82;35.19
57791;BME280;43621;51.798;21.588;2023-05-10T20:25:56;100452.39;;;10.73;35.49
57791;BME280;43621;51.798;21.588;2023-05-10T20:29:57;100453.44;;;10.65;35.78
57791;BME280;43621;51.798;21.588;2023-05-10T20:33:58;100450.92;;;10.60;35.67
57791;BME280;43621;51.798;21.588;2023-05-10T20:37:59;100451.30;;;10.55;35.80
57791;BME280;43621;51.798;21.588;2023-05-10T20:42:01;100451.19;;;10.50;35.97
57791;BME280;43621;51.798;21.588;2023-05-10T20:46:03;100449.91;;;10.45;36.21
57791;BME280;43621;51.798;21.588;2023-05-10T20:50:05;100449.92;;;10.38;36.54
57791;BME280;43621;51.798;21.588;2023-05-10T20:54:06;100457.59;;;10.32;36.75
57791;BME280;43621;51.798;21.588;2023-05-10T20:58:07;100459.92;;;10.27;36.81
57791;BME280;43621;51.798;21.588;2023-05-10T21:02:09;100461.16;;;10.22;36.85
57791;BME280;43621;51.798;21.588;2023-05-10T21:06:10;100467.77;;;10.18;37.13
57791;BME280;43621;51.798;21.588;2023-05-10T21:10:11;100472.47;;;10.14;37.18
57791;BME280;43621;51.798;21.588;2023-05-10T21:14:12;100476.79;;;10.10;37.59
57791;BME280;43621;51.798;21.588;2023-05-10T21:18:13;100478.66;;;10.07;37.55
57791;BME280;43621;51.798;21.588;2023-05-10T21:22:14;100481.15;;;10.04;37.40
57791;BME280;43621;51.798;21.588;2023-05-10T21:26:16;100479.16;;;10.01;37.63
57791;BME280;43621;51.798;21.588;2023-05-10T21:30:17;100479.55;;;9.96;37.48
57791;BME280;43621;51.798;21.588;2023-05-10T21:34:19;100478.75;;;9.92;37.59
57791;BME280;43621;51.798;21.588;2023-05-10T21:38:21;100482.38;;;9.88;37.48